Time;durP1;ratioP1;P1;durP2;ratioP2;P2;SDS_P1;SDS_P2;PMS_P1;PMS_P2;Temp;Humidity;BMP_temperature;BMP_pressure;BME280_temperature;BME280_humidity;BME280_pressure;Samples;Min_cycle;Max_cycle;Signal;HPM_P1;HPM_P2
2023/07/16 00:02:05;;;;;;;10.40;3.30;;;18.70;99.90;;;;;;4933742;29;20059;-66
2023/07/16 00:04:31;;;;;;;6.30;2.63;;;18.60;99.90;;;;;;4933316;29;20059;-66
2023/07/16 00:06:59;;;;;;;5.03;2.78;;;18.60;99.90;;;;;;4933225;29;20519;-67
2023/07/16 00:09:24;;;;;;;10.05;3.03;;;18.60;99.90;;;;;;4933694;29;20060;-66
2023/07/16 00:11:50;;;;;;;4.40;2.75;;;18.50;99.90;;;;;;4915978;29;20051;-66
2023/07/16 00:14:16;;;;;;;6.70;2.72;;;18.60;99.90;;;;;;4910670;29;20049;-68
2023/07/16 00:16:41;;;;;;;11.70;2.63;;;18.60;99.90;;;;;;4904248;29;20067;-69
2023/07/16 00:19:09;;;;;;;8.02;2.60;;;18.70;99.90;;;;;;4899926;29;20115;-67
2023/07/16 00:21:35;;;;;;;4.75;2.40;;;18.70;99.90;;;;;;4879409;29;20053;-66
2023/07/16 00:24:01;;;;;;;8.15;2.53;;;18.60;99.90;;;;;;4899440;29;20048;-69
2023/07/16 00:26:26;;;;;;;7.63;2.22;;;18.60;99.90;;;;;;4899085;29;20061;-68
2023/07/16 00:28:52;;;;;;;7.30;2.47;;;18.50;99.90;;;;;;4881959;29;20433;-68
2023/07/16 00:31:18;;;;;;;6.00;2.20;;;18.50;99.90;;;;;;4913141;29;20056;-66
2023/07/16 00:33:43;;;;;;;10.10;2.40;;;18.60;99.90;;;;;;4917941;29;20500;-66
2023/07/16 00:36:09;;;;;;;6.38;2.38;;;18.50;99.90;;;;;;4917514;29;20485;-66
2023/07/16 00:38:35;;;;;;;5.07;2.22;;;18.50;99.90;;;;;;4917770;29;20051;-66
2023/07/16 00:41:01;;;;;;;7.07;2.13;;;18.50;99.90;;;;;;4917937;29;20165;-67
2023/07/16 00:43:26;;;;;;;5.72;2.20;;;18.50;99.90;;;;;;4917716;29;20084;-68
2023/07/16 00:45:52;;;;;;;12.63;2.75;;;18.40;99.90;;;;;;4917462;29;20051;-67
2023/07/16 00:48:19;;;;;;;7.00;2.45;;;18.30;99.90;;;;;;4900856;29;20067;-67
2023/07/16 00:50:45;;;;;;;7.78;2.45;;;18.30;99.90;;;;;;4917772;29;20411;-67
2023/07/16 00:53:12;;;;;;;9.10;2.63;;;18.20;99.90;;;;;;4917498;29;20059;-67
2023/07/16 00:55:38;;;;;;;7.25;2.53;;;18.20;99.90;;;;;;4917400;29;20135;-67
2023/07/16 00:58:06;;;;;;;9.98;2.75;;;18.30;99.90;;;;;;4916494;29;20471;-67
2023/07/16 01:00:37;;;;;;;8.57;3.05;;;18.20;99.90;;;;;;4898764;29;20051;-67
2023/07/16 01:03:08;;;;;;;8.20;2.72;;;18.20;99.90;;;;;;4898790;29;20579;-67
2023/07/16 01:05:51;;;;;;;7.47;2.85;;;18.10;99.90;;;;;;4898447;29;20064;-67
2023/07/16 01:08:30;;;;;;;6.68;2.38;;;18.10;99.90;;;;;;4898704;29;20386;-67
2023/07/16 01:10:55;;;;;;;6.82;2.95;;;18.10;99.90;;;;;;4898674;29;20176;-67
2023/07/16 01:13:22;;;;;;;8.15;2.63;;;18.10;99.90;;;;;;4898188;29;20560;-67
2023/07/16 01:15:48;;;;;;;9.02;3.45;;;18.00;99.90;;;;;;4898438;29;20115;-67
2023/07/16 01:18:13;;;;;;;8.98;2.58;;;18.00;99.90;;;;;;4898458;29;20056;-68
2023/07/16 01:20:39;;;;;;;7.03;3.03;;;18.10;99.90;;;;;;4898125;29;20457;-67
2023/07/16 01:23:24;;;;;;;9.07;3.17;;;18.00;99.90;;;;;;4898160;29;20060;-67
2023/07/16 01:26:14;;;;;;;8.30;2.97;;;18.00;99.90;;;;;;4897899;29;20055;-67
2023/07/16 01:29:08;;;;;;;7.20;2.80;;;18.00;99.90;;;;;;4898239;29;20056;-67
2023/07/16 01:31:34;;;;;;;5.55;2.70;;;18.10;99.90;;;;;;4898330;29;20061;-67
2023/07/16 01:34:03;;;;;;;6.63;2.42;;;18.00;99.90;;;;;;4897594;29;20678;-67
2023/07/16 01:36:30;;;;;;;5.03;2.75;;;18.00;99.90;;;;;;4897818;29;20107;-67
2023/07/16 01:38:55;;;;;;;5.30;3.08;;;18.00;99.90;;;;;;4898315;29;20131;-67
2023/07/16 01:41:21;;;;;;;8.40;2.80;;;18.00;99.90;;;;;;4896549;29;20148;-67
2023/07/16 01:43:47;;;;;;;;;;;18.00;99.90;;;;;;4898471;29;20132;-67
2023/07/16 01:46:19;;;;;;;8.27;2.50;;;18.10;99.90;;;;;;4898076;29;20022;-67
2023/07/16 01:48:47;;;;;;;11.10;2.97;;;18.00;99.90;;;;;;4881110;29;20135;-67
2023/07/16 01:51:14;;;;;;;8.13;2.67;;;18.00;99.90;;;;;;4897739;29;20052;-67
2023/07/16 01:53:40;;;;;;;5.93;3.05;;;18.10;99.90;;;;;;4898121;29;20059;-66
2023/07/16 01:56:06;;;;;;;7.15;2.70;;;18.10;99.90;;;;;;4898068;29;20435;-67
2023/07/16 01:58:32;;;;;;;9.30;2.72;;;18.00;99.90;;;;;;4898421;29;20053;-67
2023/07/16 02:00:57;;;;;;;10.02;3.30;;;18.00;99.90;;;;;;4897608;29;20076;-67
2023/07/16 02:03:23;;;;;;;8.27;2.95;;;18.10;99.90;;;;;;4865486;29;20056;-67
2023/07/16 02:05:49;;;;;;;5.28;2.60;;;18.10;99.90;;;;;;4897120;29;20112;-67
2023/07/16 02:08:16;;;;;;;7.20;3.05;;;18.10;99.90;;;;;;4897493;29;20053;-67
2023/07/16 02:10:41;;;;;;;6.55;2.97;;;18.00;99.90;;;;;;4897324;29;20049;-67
2023/07/16 02:13:07;;;;;;;8.40;2.55;;;18.00;99.90;;;;;;4897175;29;20112;-67
2023/07/16 02:15:33;;;;;;;9.07;2.92;;;18.00;99.90;;;;;;4897238;29;20052;-67
2023/07/16 02:17:58;;;;;;;5.50;3.08;;;18.00;99.90;;;;;;4897303;29;20489;-67
2023/07/16 02:20:24;;;;;;;5.35;2.45;;;18.00;99.90;;;;;;4879975;29;20071;-67
2023/07/16 02:22:50;;;;;;;8.27;2.97;;;17.90;99.90;;;;;;4880409;29;20075;-67
2023/07/16 02:25:16;;;;;;;8.13;2.80;;;17.90;99.90;;;;;;4896366;29;20123;-67
2023/07/16 02:27:41;;;;;;;9.73;3.00;;;17.80;99.90;;;;;;4896847;29;20056;-67
2023/07/16 02:30:07;;;;;;;12.77;3.53;;;17.80;99.90;;;;;;4895862;29;20438;-67
2023/07/16 02:32:34;;;;;;;10.57;3.70;;;17.90;99.90;;;;;;4895735;29;20423;-67
2023/07/16 02:35:00;;;;;;;8.70;3.20;;;18.00;99.90;;;;;;4896746;29;20057;-67
2023/07/16 02:37:26;;;;;;;12.68;3.42;;;17.80;99.90;;;;;;4897056;29;20055;-67
2023/07/16 02:39:51;;;;;;;6.72;2.72;;;17.80;99.90;;;;;;4879725;29;20461;-67
2023/07/16 02:42:17;;;;;;;8.82;3.00;;;17.80;99.90;;;;;;4896735;29;20048;-67
2023/07/16 02:44:44;;;;;;;5.10;2.60;;;17.80;99.90;;;;;;4879229;29;20127;-67
2023/07/16 02:47:11;;;;;;;7.63;2.80;;;17.70;99.90;;;;;;4896864;29;20080;-67
2023/07/16 02:49:37;;;;;;;8.85;3.25;;;17.60;99.90;;;;;;4896996;29;20053;-67
2023/07/16 02:52:03;;;;;;;12.48;3.60;;;17.70;99.90;;;;;;4897161;29;20127;-67
2023/07/16 02:54:29;;;;;;;12.77;3.25;;;17.70;99.90;;;;;;4879772;29;20140;-67
2023/07/16 02:56:54;;;;;;;6.38;2.97;;;17.70;99.90;;;;;;4896743;29;20135;-67
2023/07/16 02:59:20;;;;;;;8.05;3.33;;;17.70;99.90;;;;;;4896408;29;20100;-67
2023/07/16 03:01:46;;;;;;;11.45;3.33;;;17.70;99.90;;;;;;4896335;29;20092;-67
2023/07/16 03:04:11;;;;;;;6.28;3.17;;;17.70;99.90;;;;;;4896589;29;20073;-67
2023/07/16 03:06:37;;;;;;;10.38;3.10;;;17.70;99.90;;;;;;4896526;29;20059;-67
2023/07/16 03:09:03;;;;;;;12.15;3.35;;;17.60;99.90;;;;;;4896370;29;20052;-67
2023/07/16 03:11:29;;;;;;;7.07;3.42;;;17.60;99.90;;;;;;4896064;29;20120;-67
2023/07/16 03:13:55;;;;;;;12.77;3.70;;;17.60;99.90;;;;;;4896208;29;20057;-67
2023/07/16 03:16:20;;;;;;;7.35;3.50;;;17.50;99.90;;;;;;4896239;29;20056;-67
2023/07/16 03:18:46;;;;;;;11.20;3.03;;;17.50;99.90;;;;;;4896284;29;20048;-67
2023/07/16 03:21:12;;;;;;;10.32;3.25;;;17.60;99.90;;;;;;4879483;29;20493;-67
2023/07/16 03:23:38;;;;;;;9.73;3.65;;;17.50;99.90;;;;;;4895947;29;20051;-67
2023/07/16 03:26:03;;;;;;;12.30;3.40;;;17.40;99.90;;;;;;4895854;29;20520;-67
2023/07/16 03:28:29;;;;;;;10.40;3.38;;;17.50;99.90;;;;;;4879107;29;20064;-67
2023/07/16 03:30:55;;;;;;;;;;;17.50;99.90;;;;;;4896950;29;20055;-67
2023/07/16 03:33:21;;;;;;;9.13;3.08;;;17.20;99.90;;;;;;4896268;29;20351;-67
2023/07/16 03:35:48;;;;;;;10.38;3.15;;;17.30;99.90;;;;;;4895554;29;20056;-67
2023/07/16 03:38:15;;;;;;;8.27;2.47;;;17.40;99.90;;;;;;4895842;29;20063;-67
2023/07/16 03:40:43;;;;;;;7.75;2.88;;;17.40;99.90;;;;;;4879080;29;20142;-67
2023/07/16 03:43:08;;;;;;;9.88;3.67;;;17.40;99.90;;;;;;4877774;29;20415;-68
2023/07/16 03:45:34;;;;;;;10.05;3.50;;;17.50;99.90;;;;;;4895850;29;20099;-67
2023/07/16 03:48:00;;;;;;;10.00;3.83;;;17.40;99.90;;;;;;4895990;29;20041;-67
2023/07/16 03:50:25;;;;;;;9.02;3.05;;;17.30;99.90;;;;;;4878996;29;20405;-67
2023/07/16 03:52:51;;;;;;;6.88;2.85;;;17.40;99.90;;;;;;4895635;29;20059;-67
2023/07/16 03:55:17;;;;;;;7.25;3.25;;;17.40;99.90;;;;;;4895535;29;20495;-67
2023/07/16 03:57:43;;;;;;;9.73;3.38;;;17.30;99.90;;;;;;4895717;29;20123;-67
2023/07/16 04:00:09;;;;;;;9.52;3.70;;;17.30;99.90;;;;;;4883099;29;20048;-67
2023/07/16 04:02:35;;;;;;;8.50;3.42;;;17.30;99.90;;;;;;4880660;29;20057;-67
2023/07/16 04:05:02;;;;;;;8.23;3.30;;;17.30;99.90;;;;;;4914478;29;20052;-67
2023/07/16 04:07:27;;;;;;;8.05;3.50;;;17.30;99.90;;;;;;4914166;29;20058;-67
2023/07/16 04:09:53;;;;;;;10.70;3.58;;;17.30;99.90;;;;;;4897499;29;20048;-67
2023/07/16 04:12:19;;;;;;;11.15;3.78;;;17.40;99.90;;;;;;4899403;29;20048;-67
2023/07/16 04:14:46;;;;;;;10.55;3.58;;;17.40;99.90;;;;;;4895439;29;20044;-67
2023/07/16 04:17:11;;;;;;;8.15;3.17;;;17.50;99.90;;;;;;4878455;29;20060;-67
2023/07/16 04:19:38;;;;;;;7.45;3.45;;;17.50;99.90;;;;;;4895328;29;20055;-67
2023/07/16 04:22:05;;;;;;;8.68;3.38;;;17.50;99.90;;;;;;4895156;29;20052;-67
2023/07/16 04:24:31;;;;;;;9.40;3.85;;;17.60;99.90;;;;;;4895039;29;20058;-68
2023/07/16 04:26:59;;;;;;;7.88;3.05;;;17.70;99.90;;;;;;4895296;29;20801;-67
2023/07/16 04:29:24;;;;;;;8.57;3.42;;;17.70;99.90;;;;;;4895226;29;20056;-67
2023/07/16 04:31:50;;;;;;;10.07;3.47;;;17.80;99.90;;;;;;4895510;29;20410;-67
2023/07/16 04:34:16;;;;;;;8.57;2.95;;;17.80;99.90;;;;;;4895121;29;20072;-67
2023/07/16 04:36:43;;;;;;;14.02;3.50;;;17.90;99.90;;;;;;4877968;29;20064;-67
2023/07/16 04:39:08;;;;;;;6.65;3.15;;;17.90;99.90;;;;;;4895240;29;20381;-67
2023/07/16 04:41:34;;;;;;;8.55;3.20;;;18.00;99.90;;;;;;4895143;29;20128;-67
2023/07/16 04:44:00;;;;;;;11.65;3.50;;;17.90;99.90;;;;;;4878284;29;20097;-67
2023/07/16 04:46:25;;;;;;;9.45;3.60;;;18.00;99.90;;;;;;4895300;29;20078;-67
2023/07/16 04:48:51;;;;;;;9.93;3.58;;;18.00;99.90;;;;;;4878047;29;20406;-67
2023/07/16 04:51:17;;;;;;;10.23;2.70;;;18.10;99.90;;;;;;4895047;29;20062;-67
2023/07/16 04:53:43;;;;;;;6.72;3.33;;;18.20;99.90;;;;;;4878344;29;20057;-67
2023/07/16 04:56:15;;;;;;;9.43;3.25;;;18.20;99.90;;;;;;4895174;29;20064;-67
2023/07/16 04:58:42;;;;;;;8.13;3.83;;;18.30;99.90;;;;;;4894971;29;20091;-67
2023/07/16 05:01:09;;;;;;;11.35;3.28;;;18.30;99.90;;;;;;4895196;29;20071;-67
2023/07/16 05:03:35;;;;;;;8.57;3.03;;;18.50;99.90;;;;;;4894871;29;20139;-67
2023/07/16 05:06:01;;;;;;;7.88;2.97;;;18.50;99.90;;;;;;4895202;29;20136;-67
2023/07/16 05:08:26;;;;;;;7.20;2.65;;;18.60;99.90;;;;;;4896505;29;20071;-67
2023/07/16 05:10:52;;;;;;;7.40;2.70;;;18.60;99.90;;;;;;4898645;29;20415;-67
2023/07/16 05:13:18;;;;;;;10.18;3.22;;;18.70;99.90;;;;;;4881335;29;20044;-67
2023/07/16 05:15:44;;;;;;;12.40;3.17;;;18.80;99.90;;;;;;4898465;29;20100;-67
2023/07/16 05:18:10;;;;;;;7.53;3.35;;;18.90;99.90;;;;;;4898069;29;20497;-67
2023/07/16 05:20:36;;;;;;;8.15;3.78;;;19.00;99.90;;;;;;4898246;29;20072;-67
2023/07/16 05:23:01;;;;;;;13.32;3.15;;;19.00;99.90;;;;;;4898348;29;20060;-67
2023/07/16 05:25:27;;;;;;;9.40;3.10;;;19.00;99.90;;;;;;4898111;29;20048;-67
2023/07/16 05:27:53;;;;;;;10.27;3.47;;;19.10;99.90;;;;;;4898161;29;20400;-67
2023/07/16 05:30:18;;;;;;;8.48;3.33;;;19.20;99.90;;;;;;4881408;29;20119;-67
2023/07/16 05:32:44;;;;;;;7.30;3.28;;;19.40;99.90;;;;;;4897769;29;20060;-67
2023/07/16 05:35:10;;;;;;;6.63;3.10;;;19.50;99.90;;;;;;4897986;29;20056;-67
2023/07/16 05:37:36;;;;;;;10.00;2.97;;;19.60;99.90;;;;;;4881230;29;20083;-67
2023/07/16 05:40:03;;;;;;;9.63;3.00;;;19.60;99.90;;;;;;4898109;29;20061;-67
2023/07/16 05:42:29;;;;;;;10.02;3.00;;;19.60;99.90;;;;;;4898084;29;20045;-67
2023/07/16 05:44:55;;;;;;;7.88;3.20;;;19.70;99.90;;;;;;4865458;29;20059;-67
2023/07/16 05:47:20;;;;;;;12.82;3.33;;;19.70;99.90;;;;;;4897648;29;20052;-67
2023/07/16 05:49:46;;;;;;;9.55;3.63;;;19.70;99.90;;;;;;4881120;29;20048;-67
2023/07/16 05:52:12;;;;;;;9.43;3.25;;;19.80;99.90;;;;;;4897773;29;20055;-67
2023/07/16 05:54:37;;;;;;;8.77;3.33;;;19.70;99.90;;;;;;4897984;29;20052;-67
2023/07/16 05:57:03;;;;;;;8.05;3.40;;;19.80;99.90;;;;;;4898708;29;20044;-67
2023/07/16 05:59:29;;;;;;;9.32;4.25;;;19.80;99.90;;;;;;4897856;29;20488;-67
2023/07/16 06:01:57;;;;;;;6.78;3.30;;;19.90;99.90;;;;;;4897788;29;20049;-67
2023/07/16 06:04:23;;;;;;;8.45;3.90;;;19.90;99.90;;;;;;4897741;29;20076;-67
2023/07/16 06:06:49;;;;;;;12.10;3.95;;;20.00;99.90;;;;;;4897398;29;20461;-67
2023/07/16 06:09:15;;;;;;;7.35;3.22;;;20.00;99.90;;;;;;4897565;29;20060;-67
2023/07/16 06:11:40;;;;;;;11.68;4.38;;;19.90;99.90;;;;;;4897338;29;20052;-67
2023/07/16 06:14:06;;;;;;;8.60;3.45;;;20.00;99.90;;;;;;4897345;29;20048;-67
2023/07/16 06:16:32;;;;;;;9.13;3.67;;;20.00;99.90;;;;;;4879969;29;20519;-67
2023/07/16 06:18:57;;;;;;;8.27;3.80;;;20.00;99.90;;;;;;4896828;29;20051;-67
2023/07/16 06:21:23;;;;;;;9.52;3.53;;;20.00;99.90;;;;;;4896882;29;20108;-67
2023/07/16 06:23:49;;;;;;;7.38;3.70;;;20.10;99.90;;;;;;4897230;29;20064;-67
2023/07/16 06:26:14;;;;;;;7.63;3.67;;;20.20;99.90;;;;;;4896978;29;20144;-67
2023/07/16 06:28:40;;;;;;;9.02;3.67;;;20.20;99.90;;;;;;4880369;29;20195;-67
2023/07/16 06:31:06;;;;;;;8.35;3.88;;;20.00;99.90;;;;;;4897029;29;20087;-67
2023/07/16 06:33:31;;;;;;;11.27;3.63;;;20.20;99.90;;;;;;4896742;29;20049;-68
2023/07/16 06:35:57;;;;;;;9.65;4.13;;;20.10;99.90;;;;;;4896643;29;20067;-67
2023/07/16 06:38:23;;;;;;;10.63;3.97;;;20.20;99.90;;;;;;4896820;29;20055;-67
2023/07/16 06:40:49;;;;;;;12.60;3.85;;;20.30;99.90;;;;;;4896646;29;20060;-67
2023/07/16 06:43:16;;;;;;;8.23;4.22;;;20.30;99.90;;;;;;4896715;29;20063;-67
2023/07/16 06:45:42;;;;;;;8.95;3.50;;;20.30;99.90;;;;;;4896605;29;20056;-67
2023/07/16 06:48:08;;;;;;;8.30;3.78;;;20.20;99.90;;;;;;4879817;29;20083;-67
2023/07/16 06:50:34;;;;;;;8.02;3.40;;;20.30;99.90;;;;;;4896812;29;20052;-67
2023/07/16 06:52:59;;;;;;;10.88;4.00;;;20.50;99.90;;;;;;4896506;29;20055;-67
2023/07/16 06:55:25;;;;;;;8.77;3.70;;;20.40;99.90;;;;;;4896565;29;20222;-67
2023/07/16 06:57:51;;;;;;;8.85;4.00;;;20.30;99.90;;;;;;4879563;29;20401;-67
2023/07/16 07:00:17;;;;;;;9.48;3.95;;;20.40;99.90;;;;;;4896432;29;20045;-68
2023/07/16 07:02:42;;;;;;;7.70;3.78;;;20.50;99.90;;;;;;4896422;29;20048;-68
2023/07/16 07:05:11;;;;;;;8.48;3.42;;;20.40;99.90;;;;;;4896228;29;20143;-68
2023/07/16 07:07:36;;;;;;;9.25;3.42;;;20.50;99.90;;;;;;4896644;29;20116;-68
2023/07/16 07:10:02;;;;;;;8.73;4.53;;;20.60;99.90;;;;;;4879358;29;20049;-68
2023/07/16 07:12:28;;;;;;;9.38;3.70;;;20.60;99.90;;;;;;4896394;29;20414;-68
2023/07/16 07:14:54;;;;;;;7.35;3.65;;;20.60;99.90;;;;;;4879890;29;20056;-68
2023/07/16 07:17:19;;;;;;;10.32;3.78;;;20.50;99.90;;;;;;4879475;29;20143;-68
2023/07/16 07:19:45;;;;;;;9.43;3.92;;;20.60;99.90;;;;;;4896370;29;20044;-68
2023/07/16 07:22:13;;;;;;;10.63;4.05;;;20.60;99.90;;;;;;4896340;29;20515;-68
2023/07/16 07:24:39;;;;;;;8.95;3.75;;;20.70;99.90;;;;;;4896036;29;20123;-68
2023/07/16 07:27:05;;;;;;;8.52;4.15;;;20.90;99.90;;;;;;4896180;29;20193;-68
2023/07/16 07:29:30;;;;;;;11.88;3.95;;;20.80;99.90;;;;;;4879262;29;20116;-68
2023/07/16 07:31:56;;;;;;;8.30;3.88;;;20.90;99.90;;;;;;4896004;29;20453;-68
2023/07/16 07:34:22;;;;;;;13.45;4.13;;;20.80;99.90;;;;;;4895968;29;20052;-68
2023/07/16 07:36:48;;;;;;;10.50;3.80;;;20.90;99.90;;;;;;4878915;29;20057;-68
2023/07/16 07:39:14;;;;;;;8.80;3.92;;;20.90;99.90;;;;;;4879147;29;20131;-68
2023/07/16 07:41:40;;;;;;;6.47;3.60;;;20.90;99.90;;;;;;4895765;29;20048;-68
2023/07/16 07:44:05;;;;;;;8.70;4.22;;;20.90;99.90;;;;;;4878823;29;20045;-68
2023/07/16 07:46:31;;;;;;;9.40;3.80;;;20.90;99.90;;;;;;4863314;29;20123;-68
2023/07/16 07:48:57;;;;;;;9.40;3.60;;;21.10;99.90;;;;;;4879030;29;20107;-68
2023/07/16 07:51:22;;;;;;;7.53;3.85;;;21.10;99.90;;;;;;4895935;29;20063;-68
2023/07/16 07:53:48;;;;;;;10.00;3.97;;;21.10;99.90;;;;;;4895761;29;20045;-68
2023/07/16 07:56:14;;;;;;;7.60;3.40;;;21.20;99.90;;;;;;4895954;29;20063;-68
2023/07/16 07:58:40;;;;;;;8.90;3.80;;;21.20;99.90;;;;;;4878818;29;20057;-68
2023/07/16 08:01:07;;;;;;;7.13;3.58;;;21.30;99.90;;;;;;4895979;29;20048;-68
2023/07/16 08:03:33;;;;;;;8.02;4.00;;;21.30;99.90;;;;;;4896032;29;20128;-68
2023/07/16 08:05:59;;;;;;;11.98;3.88;;;21.30;99.90;;;;;;4895547;29;20048;-68
2023/07/16 08:08:25;;;;;;;10.07;3.88;;;21.40;99.90;;;;;;4888091;29;20107;-68
2023/07/16 08:10:50;;;;;;;6.05;3.08;;;21.40;99.90;;;;;;4933340;29;20090;-68
2023/07/16 08:13:16;;;;;;;8.95;3.47;;;21.50;99.90;;;;;;4933258;29;20048;-68
2023/07/16 08:15:42;;;;;;;7.97;3.58;;;21.50;99.90;;;;;;4916192;29;20066;-68
2023/07/16 08:18:08;;;;;;;15.63;4.25;;;21.60;99.90;;;;;;4933433;29;20043;-68
2023/07/16 08:20:36;;;;;;;11.20;3.78;;;21.60;99.90;;;;;;4933292;29;20126;-68
2023/07/16 08:23:01;;;;;;;9.77;3.78;;;21.40;99.90;;;;;;4933086;29;20043;-68
2023/07/16 08:25:27;;;;;;;9.07;3.35;;;21.50;99.90;;;;;;4915702;29;20472;-68
2023/07/16 08:27:53;;;;;;;11.50;4.00;;;21.60;99.90;;;;;;4933331;29;20048;-68
2023/07/16 08:30:19;;;;;;;7.45;3.38;;;21.60;99.90;;;;;;4915967;29;20047;-68
2023/07/16 08:32:44;;;;;;;8.32;4.28;;;21.60;99.90;;;;;;4915955;29;20106;-68
2023/07/16 08:35:16;;;;;;;8.90;3.92;;;21.60;99.90;;;;;;4933142;29;20056;-69
2023/07/16 08:37:45;;;;;;;6.60;3.30;;;21.60;99.90;;;;;;4933493;29;20056;-68
2023/07/16 08:40:14;;;;;;;9.30;3.60;;;21.40;99.90;;;;;;4933122;29;20182;-68
2023/07/16 08:42:43;;;;;;;8.35;3.83;;;21.50;99.90;;;;;;4933503;29;20040;-68
2023/07/16 08:45:10;;;;;;;10.70;3.95;;;21.50;99.90;;;;;;4936718;29;20047;-68
2023/07/16 08:47:37;;;;;;;7.30;3.70;;;21.40;99.90;;;;;;4936864;29;20215;-68
2023/07/16 08:50:03;;;;;;;8.95;4.18;;;21.20;99.90;;;;;;4936539;29;20055;-68
2023/07/16 08:52:29;;;;;;;10.10;3.55;;;21.00;99.90;;;;;;4919556;29;20060;-68
2023/07/16 08:54:55;;;;;;;8.85;3.70;;;20.90;99.90;;;;;;4919735;29;20518;-68
2023/07/16 08:57:22;;;;;;;8.20;3.72;;;20.80;99.90;;;;;;4919138;29;20519;-68
2023/07/16 08:59:48;;;;;;;12.13;4.32;;;20.70;99.90;;;;;;4936664;29;20392;-68
2023/07/16 09:02:17;;;;;;;11.80;4.43;;;20.70;99.90;;;;;;4919561;29;20063;-68
2023/07/16 09:04:42;;;;;;;7.50;3.72;;;20.80;99.90;;;;;;4919056;29;20063;-68
2023/07/16 09:07:08;;;;;;;8.35;3.58;;;20.80;99.90;;;;;;4936503;29;20058;-68
2023/07/16 09:09:34;;;;;;;10.38;3.72;;;20.90;99.90;;;;;;4919053;29;20055;-68
2023/07/16 09:12:00;;;;;;;8.77;3.80;;;21.00;99.90;;;;;;4920919;29;20125;-68
2023/07/16 09:14:26;;;;;;;6.97;4.25;;;21.20;99.90;;;;;;4906484;29;20067;-68
2023/07/16 09:16:52;;;;;;;8.35;3.78;;;21.30;99.90;;;;;;4900928;29;20052;-68
2023/07/16 09:19:18;;;;;;;11.52;3.90;;;21.30;99.90;;;;;;4898144;29;20055;-68
2023/07/16 09:21:51;;;;;;;8.70;3.70;;;21.20;99.90;;;;;;4898496;29;20052;-68
2023/07/16 09:24:18;;;;;;;6.40;3.20;;;21.20;99.90;;;;;;4898120;29;20060;-68
2023/07/16 09:26:51;;;;;;;9.25;3.63;;;21.10;99.90;;;;;;4881079;29;20151;-68
2023/07/16 09:29:18;;;;;;;11.98;4.55;;;21.20;99.90;;;;;;4881162;29;20672;-68
2023/07/16 09:32:02;;;;;;;9.57;4.20;;;21.40;99.90;;;;;;4898145;29;20275;-68
2023/07/16 09:34:29;;;;;;;7.78;3.63;;;21.50;99.90;;;;;;4897845;29;20051;-68
2023/07/16 09:36:59;;;;;;;6.28;3.58;;;21.50;99.90;;;;;;4898187;29;20101;-68
2023/07/16 09:39:26;;;;;;;7.68;3.85;;;21.60;99.90;;;;;;4897662;29;20509;-68
2023/07/16 09:41:52;;;;;;;9.75;4.38;;;21.40;99.90;;;;;;4897921;29;20542;-68
2023/07/16 09:44:18;;;;;;;10.60;4.22;;;21.50;99.90;;;;;;4897997;29;20168;-68
2023/07/16 09:46:45;;;;;;;9.13;4.07;;;21.30;99.90;;;;;;4900979;29;20181;-68
2023/07/16 09:49:11;;;;;;;5.78;3.72;;;21.20;99.90;;;;;;4912543;29;20052;-68
2023/07/16 09:51:38;;;;;;;9.32;4.40;;;21.30;99.90;;;;;;4902627;29;20176;-68
2023/07/16 09:54:05;;;;;;;11.40;4.28;;;21.30;99.90;;;;;;4880325;29;20061;-68
2023/07/16 09:56:39;;;;;;;9.13;4.20;;;21.30;99.90;;;;;;4914636;29;20055;-68
2023/07/16 09:59:22;;;;;;;14.13;3.70;;;21.30;99.90;;;;;;4916810;29;20056;-68
2023/07/16 10:01:49;;;;;;;9.60;4.55;;;21.40;99.90;;;;;;4908481;29;20121;-68
2023/07/16 10:04:17;;;;;;;11.90;4.05;;;21.60;99.90;;;;;;4890605;29;20515;-68
2023/07/16 10:06:56;;;;;;;12.00;4.22;;;21.60;99.90;;;;;;4892329;29;20060;-68
2023/07/16 10:09:42;;;;;;;8.55;4.40;;;21.50;99.90;;;;;;4889766;29;20092;-68
2023/07/16 10:12:10;;;;;;;10.23;4.20;;;21.50;99.90;;;;;;4908716;29;20420;-68
2023/07/16 10:14:58;;;;;;;8.05;3.70;;;21.40;99.90;;;;;;4906815;29;20044;-68
2023/07/16 10:17:25;;;;;;;7.95;4.25;;;21.40;99.90;;;;;;4916151;29;20052;-68
2023/07/16 10:19:51;;;;;;;8.43;4.10;;;21.50;99.90;;;;;;4907735;29;20059;-68
2023/07/16 10:22:19;;;;;;;10.30;4.20;;;21.60;99.90;;;;;;4905586;29;20060;-68
2023/07/16 10:24:51;;;;;;;10.95;3.97;;;21.60;99.90;;;;;;4897013;29;20474;-68
2023/07/16 10:27:33;;;;;;;8.18;4.18;;;21.50;99.90;;;;;;4896891;29;20479;-69
2023/07/16 10:30:03;;;;;;;7.72;3.97;;;21.40;99.90;;;;;;4897196;29;20087;-68
2023/07/16 10:32:30;;;;;;;9.18;4.10;;;21.40;99.90;;;;;;4897133;29;20060;-68
2023/07/16 10:34:57;;;;;;;10.40;4.22;;;21.40;99.90;;;;;;4896876;29;20428;-68
2023/07/16 10:37:23;;;;;;;7.80;4.13;;;21.20;99.90;;;;;;4896673;29;20097;-68
2023/07/16 10:39:54;;;;;;;9.68;4.47;;;21.10;99.90;;;;;;4896787;29;20135;-68
2023/07/16 10:42:21;;;;;;;6.85;3.88;;;21.20;99.90;;;;;;4896742;29;20124;-68
2023/07/16 10:45:00;;;;;;;8.50;4.10;;;21.20;99.90;;;;;;4896939;29;20060;-68
2023/07/16 10:47:37;;;;;;;12.40;4.07;;;21.20;99.90;;;;;;4896942;29;20056;-68
2023/07/16 10:50:09;;;;;;;10.43;3.53;;;21.30;99.90;;;;;;4896492;29;20489;-68
2023/07/16 10:52:38;;;;;;;7.43;3.00;;;21.30;99.90;;;;;;4896345;29;20055;-68
2023/07/16 10:55:04;;;;;;;5.20;3.20;;;21.40;99.90;;;;;;4879597;29;20248;-68
2023/07/16 10:57:30;;;;;;;6.70;3.22;;;21.30;99.90;;;;;;4896691;29;20047;-68
2023/07/16 10:59:57;;;;;;;6.82;3.70;;;21.30;99.90;;;;;;4896701;29;20056;-68
2023/07/16 11:02:25;;;;;;;11.07;4.07;;;21.20;99.90;;;;;;4879515;29;20049;-68
2023/07/16 11:04:54;;;;;;;6.57;3.58;;;21.40;99.90;;;;;;4896328;29;20053;-68
2023/07/16 11:07:21;;;;;;;7.57;3.75;;;21.30;99.90;;;;;;4895666;29;20049;-68
2023/07/16 11:09:52;;;;;;;12.15;3.97;;;21.50;99.90;;;;;;4896734;29;20159;-68
2023/07/16 11:12:21;;;;;;;7.53;3.40;;;21.60;99.90;;;;;;4896862;29;20053;-68
2023/07/16 11:14:48;;;;;;;8.27;3.53;;;21.60;99.90;;;;;;4896496;29;20108;-68
2023/07/16 11:17:15;;;;;;;11.07;4.20;;;21.70;99.90;;;;;;4896416;29;20136;-68
2023/07/16 11:19:44;;;;;;;9.48;4.00;;;21.60;99.90;;;;;;4896049;29;20051;-68
2023/07/16 11:22:10;;;;;;;17.63;4.50;;;21.70;99.90;;;;;;4896092;29;20468;-68
2023/07/16 11:24:46;;;;;;;7.80;4.65;;;21.80;99.90;;;;;;4896249;29;20127;-68
2023/07/16 11:27:29;;;;;;;12.48;4.43;;;21.90;99.90;;;;;;4896251;29;20453;-68
2023/07/16 11:29:58;;;;;;;10.27;4.63;;;22.00;99.90;;;;;;4896102;29;20548;-68
2023/07/16 11:32:38;;;;;;;8.13;4.45;;;22.00;99.90;;;;;;4896101;29;20056;-68
2023/07/16 11:35:08;;;;;;;14.05;3.92;;;22.10;99.90;;;;;;4878958;29;20061;-68
2023/07/16 11:37:35;;;;;;;7.78;3.67;;;22.10;99.90;;;;;;4896114;29;20052;-68
2023/07/16 11:40:08;;;;;;;7.20;3.80;;;22.00;99.90;;;;;;4895948;29;20048;-68
2023/07/16 11:42:36;;;;;;;7.47;4.07;;;22.00;99.90;;;;;;4896054;29;20056;-68
2023/07/16 11:45:03;;;;;;;8.13;3.88;;;21.80;99.90;;;;;;4896050;29;20127;-68
2023/07/16 11:47:30;;;;;;;10.65;3.35;;;21.80;99.90;;;;;;4878964;29;20056;-68
2023/07/16 11:49:57;;;;;;;8.95;3.55;;;21.70;99.90;;;;;;4895710;29;20056;-68
2023/07/16 11:52:27;;;;;;;10.82;3.72;;;21.70;99.90;;;;;;4895987;29;20120;-68
2023/07/16 11:54:53;;;;;;;7.65;3.67;;;21.70;99.90;;;;;;4896123;29;20147;-68
2023/07/16 11:57:20;;;;;;;5.10;3.05;;;21.70;99.90;;;;;;4895947;29;20048;-68
2023/07/16 11:59:46;;;;;;;9.25;4.13;;;21.70;99.90;;;;;;4895606;29;20131;-68
2023/07/16 12:02:12;;;;;;;6.95;3.80;;;21.70;99.90;;;;;;4895794;29;20048;-68
2023/07/16 12:04:38;;;;;;;12.43;4.13;;;21.70;99.90;;;;;;4895638;29;20060;-68
2023/07/16 12:07:03;;;;;;;9.48;4.10;;;21.70;99.90;;;;;;4895634;29;20060;-68
2023/07/16 12:09:29;;;;;;;12.38;4.13;;;21.60;99.90;;;;;;4895742;29;20040;-68
2023/07/16 12:11:56;;;;;;;8.48;3.92;;;21.60;99.90;;;;;;4895572;29;20091;-68
2023/07/16 12:14:21;;;;;;;9.82;4.18;;;21.50;99.90;;;;;;4895341;29;20092;-68
2023/07/16 12:16:47;;;;;;;6.78;3.58;;;21.60;99.90;;;;;;4896285;29;20056;-68
2023/07/16 12:19:13;;;;;;;6.63;3.67;;;21.50;99.90;;;;;;4899184;29;20064;-68
2023/07/16 12:21:38;;;;;;;6.25;3.50;;;21.50;99.90;;;;;;4899523;29;20049;-68
2023/07/16 12:24:05;;;;;;;7.82;3.67;;;21.40;99.90;;;;;;4899520;29;20057;-68
2023/07/16 12:26:31;;;;;;;9.88;4.28;;;21.50;99.90;;;;;;4898876;29;20156;-68
2023/07/16 12:28:56;;;;;;;8.27;3.80;;;21.50;99.90;;;;;;4882348;29;20196;-68
2023/07/16 12:31:22;;;;;;;7.68;3.60;;;21.70;99.90;;;;;;4899414;29;20489;-68
2023/07/16 12:33:48;;;;;;;12.07;4.38;;;21.60;99.90;;;;;;4899110;29;20058;-68
2023/07/16 12:36:14;;;;;;;12.90;4.28;;;21.50;99.90;;;;;;4898887;29;20453;-68
2023/07/16 12:38:41;;;;;;;9.63;4.00;;;21.50;99.90;;;;;;4899186;29;20044;-68
2023/07/16 12:41:06;;;;;;;8.60;3.85;;;21.60;99.90;;;;;;4898866;29;20060;-68
2023/07/16 12:43:34;;;;;;;9.25;3.80;;;21.60;99.90;;;;;;4898739;29;20054;-68
2023/07/16 12:46:04;;;;;;;7.43;3.67;;;21.80;99.90;;;;;;4910405;29;20066;-68